createdAt,value
2022-09-28T00:16:19.110Z,51
2022-09-28T00:32:52.083Z,52
2022-09-28T01:05:57.368Z,52
2022-09-28T01:22:30.761Z,53
2022-09-28T01:39:03.142Z,53
2022-09-28T02:12:07.150Z,53
2022-09-28T02:28:40.609Z,52
2022-09-28T02:45:12.845Z,53
2022-09-28T03:01:45.431Z,52
2022-09-28T03:18:17.630Z,53
2022-09-28T03:34:49.458Z,54
2022-09-28T03:51:17.148Z,55
2022-09-28T04:07:49.959Z,55
2022-09-28T04:24:22.762Z,55
2022-09-28T04:40:55.234Z,55
2022-09-28T05:14:00.643Z,56
2022-09-28T05:30:32.746Z,55
2022-09-28T05:47:05.185Z,56
2022-09-28T06:03:36.841Z,55
2022-09-28T06:20:10.307Z,55
2022-09-28T06:36:43.267Z,56
2022-09-28T06:53:16.450Z,54
2022-09-28T07:09:52.338Z,52
2022-09-28T07:26:24.110Z,54
2022-09-28T07:42:48.998Z,55
2022-09-28T07:59:16.924Z,51
2022-09-28T08:15:45.736Z,55
2022-09-28T08:32:17.662Z,54
2022-09-28T08:49:12.998Z,54
2022-09-28T09:05:23.366Z,54
2022-09-28T09:21:56.743Z,54
2022-09-28T09:38:28.959Z,55
2022-09-28T10:11:33.782Z,56
2022-09-28T10:28:06.364Z,55
2022-09-28T10:44:40.457Z,54
2022-09-28T11:01:13.231Z,54
2022-09-28T11:17:46.831Z,55
2022-09-28T12:24:04.395Z,53
2022-09-28T13:30:22.632Z,52
2022-09-28T14:03:26.241Z,51
2022-09-28T14:19:55.160Z,51
2022-09-28T14:36:24.055Z,51
2022-09-28T14:52:57.327Z,51
2022-09-28T15:09:31.764Z,52
2022-09-28T15:26:05.773Z,51
2022-09-28T15:42:40.352Z,51
2022-09-28T15:59:14.339Z,51
2022-09-28T16:15:47.917Z,51
2022-09-28T16:32:22.354Z,50
2022-09-28T16:48:56.091Z,48
2022-09-28T17:22:03.566Z,47
2022-09-28T18:11:42.212Z,46
2022-09-28T18:28:11.401Z,47
2022-09-28T18:44:39.431Z,47
2022-09-28T19:01:29.597Z,48
2022-09-28T19:17:46.573Z,47
2022-09-28T19:34:19.722Z,48
2022-09-28T19:50:52.261Z,47
2022-09-28T20:07:25.068Z,46
2022-09-28T20:23:58.178Z,45
2022-09-28T20:40:30.561Z,47
2022-09-28T20:57:03.230Z,47
2022-09-28T21:13:35.793Z,47
2022-09-28T21:30:09.192Z,46
2022-09-28T21:46:42.406Z,46
2022-09-28T22:03:14.478Z,46
2022-09-28T22:19:42.143Z,46
2022-09-28T22:36:13.669Z,45
2022-09-28T22:52:46.355Z,45
2022-09-28T23:09:18.616Z,44
2022-09-28T23:25:50.718Z,44
2022-09-28T23:42:18.157Z,45
2022-09-28T23:58:45.498Z,44
